sensor_id;sensor_type;location;lat;lon;timestamp;P1;durP1;ratioP1;P2;durP2;ratioP2
24305;SDS011;12423;48.768;8.850;2023-12-20T00:01:15;4.47;;;1.80;;
24305;SDS011;12423;48.768;8.850;2023-12-20T00:03:42;2.15;;;1.08;;
24305;SDS011;12423;48.768;8.850;2023-12-20T00:06:10;3.75;;;1.33;;
24305;SDS011;12423;48.768;8.850;2023-12-20T00:08:38;2.97;;;1.55;;
24305;SDS011;12423;48.768;8.850;2023-12-20T00:11:05;1.75;;;1.10;;
24305;SDS011;12423;48.768;8.850;2023-12-20T00:13:33;1.90;;;1.20;;
24305;SDS011;12423;48.768;8.850;2023-12-20T00:16:01;3.15;;;1.10;;
24305;SDS011;12423;48.768;8.850;2023-12-20T00:18:31;2.55;;;1.20;;
24305;SDS011;12423;48.768;8.850;2023-12-20T00:20:58;4.68;;;1.10;;
24305;SDS011;12423;48.768;8.850;2023-12-20T00:23:26;2.17;;;1.17;;
24305;SDS011;12423;48.768;8.850;2023-12-20T00:25:53;2.78;;;1.05;;
24305;SDS011;12423;48.768;8.850;2023-12-20T00:28:21;1.88;;;0.98;;
24305;SDS011;12423;48.768;8.850;2023-12-20T00:30:49;2.92;;;1.40;;
24305;SDS011;12423;48.768;8.850;2023-12-20T00:33:17;3.83;;;1.92;;
24305;SDS011;12423;48.768;8.850;2023-12-20T00:35:46;4.67;;;2.50;;
24305;SDS011;12423;48.768;8.850;2023-12-20T00:38:14;3.80;;;1.80;;
24305;SDS011;12423;48.768;8.850;2023-12-20T00:40:42;3.45;;;1.55;;
24305;SDS011;12423;48.768;8.850;2023-12-20T00:43:09;2.95;;;1.27;;
24305;SDS011;12423;48.768;8.850;2023-12-20T00:45:37;2.88;;;1.20;;
24305;SDS011;12423;48.768;8.850;2023-12-20T00:48:05;2.45;;;1.20;;
24305;SDS011;12423;48.768;8.850;2023-12-20T00:50:33;1.30;;;0.88;;
24305;SDS011;12423;48.768;8.850;2023-12-20T00:53:03;2.35;;;1.05;;
24305;SDS011;12423;48.768;8.850;2023-12-20T00:55:32;4.22;;;1.40;;
24305;SDS011;12423;48.768;8.850;2023-12-20T00:58:00;3.65;;;1.23;;
24305;SDS011;12423;48.768;8.850;2023-12-20T01:00:27;1.98;;;1.10;;
24305;SDS011;12423;48.768;8.850;2023-12-20T01:02:55;3.10;;;1.10;;
24305;SDS011;12423;48.768;8.850;2023-12-20T01:05:23;2.63;;;0.98;;
24305;SDS011;12423;48.768;8.850;2023-12-20T01:07:51;4.20;;;1.17;;
24305;SDS011;12423;48.768;8.850;2023-12-20T01:10:20;2.40;;;1.20;;
24305;SDS011;12423;48.768;8.850;2023-12-20T01:12:49;10.30;;;4.00;;
24305;SDS011;12423;48.768;8.850;2023-12-20T01:15:16;7.53;;;3.88;;
24305;SDS011;12423;48.768;8.850;2023-12-20T01:17:44;6.47;;;1.45;;
24305;SDS011;12423;48.768;8.850;2023-12-20T01:20:13;1.77;;;0.80;;
24305;SDS011;12423;48.768;8.850;2023-12-20T01:22:41;1.75;;;0.70;;
24305;SDS011;12423;48.768;8.850;2023-12-20T01:25:09;0.25;;;0.22;;
24305;SDS011;12423;48.768;8.850;2023-12-20T01:27:38;0.10;;;0.10;;
24305;SDS011;12423;48.768;8.850;2023-12-20T01:30:06;0.10;;;0.10;;
24305;SDS011;12423;48.768;8.850;2023-12-20T01:32:34;0.10;;;0.10;;
24305;SDS011;12423;48.768;8.850;2023-12-20T01:35:02;0.10;;;0.10;;
24305;SDS011;12423;48.768;8.850;2023-12-20T01:37:31;0.13;;;0.13;;
24305;SDS011;12423;48.768;8.850;2023-12-20T01:39:58;0.10;;;0.10;;
24305;SDS011;12423;48.768;8.850;2023-12-20T01:42:26;0.15;;;0.15;;
24305;SDS011;12423;48.768;8.850;2023-12-20T01:44:55;0.10;;;0.10;;
24305;SDS011;12423;48.768;8.850;2023-12-20T01:47:22;0.22;;;0.20;;
24305;SDS011;12423;48.768;8.850;2023-12-20T01:49:51;0.10;;;0.10;;
24305;SDS011;12423;48.768;8.850;2023-12-20T01:52:19;0.10;;;0.10;;
24305;SDS011;12423;48.768;8.850;2023-12-20T01:54:47;0.17;;;0.10;;
24305;SDS011;12423;48.768;8.850;2023-12-20T01:57:15;0.10;;;0.10;;
24305;SDS011;12423;48.768;8.850;2023-12-20T01:59:43;0.10;;;0.10;;
24305;SDS011;12423;48.768;8.850;2023-12-20T02:02:13;0.20;;;0.20;;
24305;SDS011;12423;48.768;8.850;2023-12-20T02:04:41;0.10;;;0.10;;
24305;SDS011;12423;48.768;8.850;2023-12-20T02:07:09;0.10;;;0.10;;
24305;SDS011;12423;48.768;8.850;2023-12-20T02:09:38;0.20;;;0.20;;
24305;SDS011;12423;48.768;8.850;2023-12-20T02:12:07;0.05;;;0.05;;
24305;SDS011;12423;48.768;8.850;2023-12-20T02:14:35;0.10;;;0.10;;
24305;SDS011;12423;48.768;8.850;2023-12-20T02:17:03;0.10;;;0.10;;
24305;SDS011;12423;48.768;8.850;2023-12-20T02:19:32;0.10;;;0.10;;
24305;SDS011;12423;48.768;8.850;2023-12-20T02:22:08;0.03;;;0.03;;
24305;SDS011;12423;48.768;8.850;2023-12-20T02:24:35;0.10;;;0.10;;
24305;SDS011;12423;48.768;8.850;2023-12-20T02:27:03;0.10;;;0.10;;
24305;SDS011;12423;48.768;8.850;2023-12-20T02:29:32;0.10;;;0.10;;
24305;SDS011;12423;48.768;8.850;2023-12-20T02:32:01;0.10;;;0.10;;
24305;SDS011;12423;48.768;8.850;2023-12-20T02:34:29;0.10;;;0.10;;
24305;SDS011;12423;48.768;8.850;2023-12-20T02:36:57;0.00;;;0.00;;
24305;SDS011;12423;48.768;8.850;2023-12-20T02:39:26;0.10;;;0.10;;
24305;SDS011;12423;48.768;8.850;2023-12-20T02:41:53;0.22;;;0.10;;
24305;SDS011;12423;48.768;8.850;2023-12-20T02:44:21;0.40;;;0.20;;
24305;SDS011;12423;48.768;8.850;2023-12-20T02:46:49;0.17;;;0.15;;
24305;SDS011;12423;48.768;8.850;2023-12-20T02:49:16;0.15;;;0.15;;
24305;SDS011;12423;48.768;8.850;2023-12-20T02:51:44;0.15;;;0.10;;
24305;SDS011;12423;48.768;8.850;2023-12-20T02:54:12;0.20;;;0.20;;
24305;SDS011;12423;48.768;8.850;2023-12-20T02:56:41;0.10;;;0.10;;
24305;SDS011;12423;48.768;8.850;2023-12-20T02:59:09;0.22;;;0.15;;
24305;SDS011;12423;48.768;8.850;2023-12-20T03:01:41;0.13;;;0.13;;
24305;SDS011;12423;48.768;8.850;2023-12-20T03:04:10;0.30;;;0.17;;
24305;SDS011;12423;48.768;8.850;2023-12-20T03:06:37;0.10;;;0.10;;
24305;SDS011;12423;48.768;8.850;2023-12-20T03:09:05;0.20;;;0.10;;
24305;SDS011;12423;48.768;8.850;2023-12-20T03:11:33;0.22;;;0.15;;
24305;SDS011;12423;48.768;8.850;2023-12-20T03:14:02;0.15;;;0.15;;
24305;SDS011;12423;48.768;8.850;2023-12-20T03:16:30;0.10;;;0.10;;
24305;SDS011;12423;48.768;8.850;2023-12-20T03:19:02;0.20;;;0.20;;
24305;SDS011;12423;48.768;8.850;2023-12-20T03:21:29;0.32;;;0.20;;
24305;SDS011;12423;48.768;8.850;2023-12-20T03:23:57;0.20;;;0.10;;
24305;SDS011;12423;48.768;8.850;2023-12-20T03:26:25;0.10;;;0.10;;
24305;SDS011;12423;48.768;8.850;2023-12-20T03:28:52;0.10;;;0.10;;
24305;SDS011;12423;48.768;8.850;2023-12-20T03:31:22;0.20;;;0.10;;
24305;SDS011;12423;48.768;8.850;2023-12-20T03:33:49;0.50;;;0.10;;
24305;SDS011;12423;48.768;8.850;2023-12-20T03:36:18;0.30;;;0.20;;
24305;SDS011;12423;48.768;8.850;2023-12-20T03:38:46;0.35;;;0.20;;
24305;SDS011;12423;48.768;8.850;2023-12-20T03:41:13;0.20;;;0.20;;
24305;SDS011;12423;48.768;8.850;2023-12-20T03:43:41;1.52;;;0.10;;
24305;SDS011;12423;48.768;8.850;2023-12-20T03:46:09;0.32;;;0.10;;
24305;SDS011;12423;48.768;8.850;2023-12-20T03:48:38;0.10;;;0.10;;
24305;SDS011;12423;48.768;8.850;2023-12-20T03:51:05;0.10;;;0.10;;
24305;SDS011;12423;48.768;8.850;2023-12-20T03:53:33;0.10;;;0.10;;
24305;SDS011;12423;48.768;8.850;2023-12-20T03:56:01;0.30;;;0.15;;
24305;SDS011;12423;48.768;8.850;2023-12-20T03:58:28;0.10;;;0.10;;
24305;SDS011;12423;48.768;8.850;2023-12-20T04:00:56;0.10;;;0.10;;
24305;SDS011;12423;48.768;8.850;2023-12-20T04:03:24;0.13;;;0.13;;
24305;SDS011;12423;48.768;8.850;2023-12-20T04:05:53;0.10;;;0.10;;
24305;SDS011;12423;48.768;8.850;2023-12-20T04:08:20;0.10;;;0.10;;
24305;SDS011;12423;48.768;8.850;2023-12-20T04:10:48;0.10;;;0.10;;
24305;SDS011;12423;48.768;8.850;2023-12-20T04:13:16;1.02;;;0.40;;
24305;SDS011;12423;48.768;8.850;2023-12-20T04:15:43;1.70;;;0.10;;
24305;SDS011;12423;48.768;8.850;2023-12-20T04:18:11;0.20;;;0.20;;
24305;SDS011;12423;48.768;8.850;2023-12-20T04:20:39;0.28;;;0.20;;
24305;SDS011;12423;48.768;8.850;2023-12-20T04:23:08;0.43;;;0.20;;
24305;SDS011;12423;48.768;8.850;2023-12-20T04:25:36;0.25;;;0.25;;
24305;SDS011;12423;48.768;8.850;2023-12-20T04:28:03;0.20;;;0.20;;
24305;SDS011;12423;48.768;8.850;2023-12-20T04:30:31;0.20;;;0.20;;
24305;SDS011;12423;48.768;8.850;2023-12-20T04:32:59;0.15;;;0.15;;
24305;SDS011;12423;48.768;8.850;2023-12-20T04:35:26;0.10;;;0.10;;
24305;SDS011;12423;48.768;8.850;2023-12-20T04:37:54;0.10;;;0.10;;
24305;SDS011;12423;48.768;8.850;2023-12-20T04:40:23;0.10;;;0.10;;
24305;SDS011;12423;48.768;8.850;2023-12-20T04:42:51;0.00;;;0.00;;
24305;SDS011;12423;48.768;8.850;2023-12-20T04:45:19;0.10;;;0.10;;
24305;SDS011;12423;48.768;8.850;2023-12-20T04:47:46;0.05;;;0.05;;
24305;SDS011;12423;48.768;8.850;2023-12-20T04:50:14;0.03;;;0.03;;
24305;SDS011;12423;48.768;8.850;2023-12-20T04:52:42;0.00;;;0.00;;
24305;SDS011;12423;48.768;8.850;2023-12-20T04:55:10;0.10;;;0.10;;
24305;SDS011;12423;48.768;8.850;2023-12-20T04:57:39;0.10;;;0.10;;
24305;SDS011;12423;48.768;8.850;2023-12-20T05:00:07;0.10;;;0.10;;
24305;SDS011;12423;48.768;8.850;2023-12-20T05:02:35;0.10;;;0.10;;
24305;SDS011;12423;48.768;8.850;2023-12-20T05:05:04;0.10;;;0.10;;
24305;SDS011;12423;48.768;8.850;2023-12-20T05:07:32;0.10;;;0.10;;
24305;SDS011;12423;48.768;8.850;2023-12-20T05:09:59;0.10;;;0.10;;
24305;SDS011;12423;48.768;8.850;2023-12-20T05:12:27;0.10;;;0.10;;
24305;SDS011;12423;48.768;8.850;2023-12-20T05:14:57;0.10;;;0.10;;
24305;SDS011;12423;48.768;8.850;2023-12-20T05:17:25;0.10;;;0.10;;
24305;SDS011;12423;48.768;8.850;2023-12-20T05:19:53;4.47;;;1.75;;
24305;SDS011;12423;48.768;8.850;2023-12-20T05:22:21;0.22;;;0.22;;
24305;SDS011;12423;48.768;8.850;2023-12-20T05:24:49;0.10;;;0.10;;
24305;SDS011;12423;48.768;8.850;2023-12-20T05:27:16;1.75;;;1.08;;
24305;SDS011;12423;48.768;8.850;2023-12-20T05:29:44;0.63;;;0.63;;
24305;SDS011;12423;48.768;8.850;2023-12-20T05:32:13;0.10;;;0.10;;
24305;SDS011;12423;48.768;8.850;2023-12-20T05:34:41;0.10;;;0.10;;
24305;SDS011;12423;48.768;8.850;2023-12-20T05:37:08;0.10;;;0.10;;
24305;SDS011;12423;48.768;8.850;2023-12-20T05:39:36;0.10;;;0.10;;
24305;SDS011;12423;48.768;8.850;2023-12-20T05:42:04;0.00;;;0.00;;
24305;SDS011;12423;48.768;8.850;2023-12-20T05:44:32;0.10;;;0.10;;
24305;SDS011;12423;48.768;8.850;2023-12-20T05:46:59;0.10;;;0.10;;
24305;SDS011;12423;48.768;8.850;2023-12-20T05:49:28;0.10;;;0.10;;
24305;SDS011;12423;48.768;8.850;2023-12-20T05:51:56;0.03;;;0.03;;
24305;SDS011;12423;48.768;8.850;2023-12-20T05:54:24;0.10;;;0.10;;
24305;SDS011;12423;48.768;8.850;2023-12-20T05:56:51;0.10;;;0.10;;
24305;SDS011;12423;48.768;8.850;2023-12-20T05:59:19;0.10;;;0.10;;
24305;SDS011;12423;48.768;8.850;2023-12-20T06:01:47;0.10;;;0.10;;
24305;SDS011;12423;48.768;8.850;2023-12-20T06:04:15;0.00;;;0.00;;
24305;SDS011;12423;48.768;8.850;2023-12-20T06:06:44;0.10;;;0.10;;
24305;SDS011;12423;48.768;8.850;2023-12-20T06:09:12;0.00;;;0.00;;
24305;SDS011;12423;48.768;8.850;2023-12-20T06:11:41;0.10;;;0.10;;
24305;SDS011;12423;48.768;8.850;2023-12-20T06:14:09;0.00;;;0.00;;
24305;SDS011;12423;48.768;8.850;2023-12-20T06:16:36;0.32;;;0.32;;
24305;SDS011;12423;48.768;8.850;2023-12-20T06:19:04;0.00;;;0.00;;
24305;SDS011;12423;48.768;8.850;2023-12-20T06:21:32;0.05;;;0.05;;
24305;SDS011;12423;48.768;8.850;2023-12-20T06:24:02;0.10;;;0.10;;
24305;SDS011;12423;48.768;8.850;2023-12-20T06:26:30;0.08;;;0.08;;
24305;SDS011;12423;48.768;8.850;2023-12-20T06:28:57;0.10;;;0.10;;
24305;SDS011;12423;48.768;8.850;2023-12-20T06:31:25;0.10;;;0.10;;
24305;SDS011;12423;48.768;8.850;2023-12-20T06:33:53;0.10;;;0.10;;
24305;SDS011;12423;48.768;8.850;2023-12-20T06:36:24;0.10;;;0.10;;
24305;SDS011;12423;48.768;8.850;2023-12-20T06:38:51;0.00;;;0.00;;
24305;SDS011;12423;48.768;8.850;2023-12-20T06:41:21;0.10;;;0.10;;
24305;SDS011;12423;48.768;8.850;2023-12-20T06:43:50;0.10;;;0.10;;
24305;SDS011;12423;48.768;8.850;2023-12-20T06:46:19;0.10;;;0.10;;
24305;SDS011;12423;48.768;8.850;2023-12-20T06:48:47;0.10;;;0.10;;
24305;SDS011;12423;48.768;8.850;2023-12-20T06:51:16;0.10;;;0.10;;
24305;SDS011;12423;48.768;8.850;2023-12-20T06:53:44;0.10;;;0.10;;
24305;SDS011;12423;48.768;8.850;2023-12-20T06:56:11;0.10;;;0.10;;
24305;SDS011;12423;48.768;8.850;2023-12-20T06:58:45;0.10;;;0.10;;
24305;SDS011;12423;48.768;8.850;2023-12-20T07:01:13;0.00;;;0.00;;
24305;SDS011;12423;48.768;8.850;2023-12-20T07:03:41;1.20;;;1.17;;
24305;SDS011;12423;48.768;8.850;2023-12-20T07:06:09;0.10;;;0.10;;
24305;SDS011;12423;48.768;8.850;2023-12-20T07:08:38;0.00;;;0.00;;
24305;SDS011;12423;48.768;8.850;2023-12-20T07:11:07;0.10;;;0.10;;
24305;SDS011;12423;48.768;8.850;2023-12-20T07:13:35;0.10;;;0.10;;
24305;SDS011;12423;48.768;8.850;2023-12-20T07:16:04;0.10;;;0.10;;
24305;SDS011;12423;48.768;8.850;2023-12-20T07:18:32;0.10;;;0.10;;
24305;SDS011;12423;48.768;8.850;2023-12-20T07:21:00;0.10;;;0.10;;
24305;SDS011;12423;48.768;8.850;2023-12-20T07:23:28;0.10;;;0.10;;
24305;SDS011;12423;48.768;8.850;2023-12-20T07:25:56;0.00;;;0.00;;
24305;SDS011;12423;48.768;8.850;2023-12-20T07:28:23;0.10;;;0.10;;
24305;SDS011;12423;48.768;8.850;2023-12-20T07:30:51;0.10;;;0.10;;
24305;SDS011;12423;48.768;8.850;2023-12-20T07:33:20;0.10;;;0.10;;
24305;SDS011;12423;48.768;8.850;2023-12-20T07:35:49;0.20;;;0.20;;
24305;SDS011;12423;48.768;8.850;2023-12-20T07:38:18;0.10;;;0.10;;
24305;SDS011;12423;48.768;8.850;2023-12-20T07:40:46;0.10;;;0.10;;
24305;SDS011;12423;48.768;8.850;2023-12-20T07:43:13;0.20;;;0.20;;
24305;SDS011;12423;48.768;8.850;2023-12-20T07:45:41;0.10;;;0.10;;
24305;SDS011;12423;48.768;8.850;2023-12-20T07:48:09;0.10;;;0.10;;
24305;SDS011;12423;48.768;8.850;2023-12-20T07:50:38;0.20;;;0.20;;
24305;SDS011;12423;48.768;8.850;2023-12-20T07:53:06;0.20;;;0.20;;
24305;SDS011;12423;48.768;8.850;2023-12-20T07:55:33;0.10;;;0.10;;
24305;SDS011;12423;48.768;8.850;2023-12-20T07:58:01;0.10;;;0.10;;
24305;SDS011;12423;48.768;8.850;2023-12-20T08:00:31;0.10;;;0.10;;
24305;SDS011;12423;48.768;8.850;2023-12-20T08:02:59;0.10;;;0.10;;
24305;SDS011;12423;48.768;8.850;2023-12-20T08:05:29;0.10;;;0.10;;
24305;SDS011;12423;48.768;8.850;2023-12-20T08:07:58;0.20;;;0.20;;
24305;SDS011;12423;48.768;8.850;2023-12-20T08:10:26;0.10;;;0.10;;
24305;SDS011;12423;48.768;8.850;2023-12-20T08:12:56;0.00;;;0.00;;
24305;SDS011;12423;48.768;8.850;2023-12-20T08:15:22;0.10;;;0.10;;
24305;SDS011;12423;48.768;8.850;2023-12-20T08:17:50;0.10;;;0.10;;
24305;SDS011;12423;48.768;8.850;2023-12-20T08:20:18;0.10;;;0.10;;
24305;SDS011;12423;48.768;8.850;2023-12-20T08:22:55;0.10;;;0.10;;
24305;SDS011;12423;48.768;8.850;2023-12-20T08:25:24;0.35;;;0.35;;
24305;SDS011;12423;48.768;8.850;2023-12-20T08:27:52;0.10;;;0.10;;
24305;SDS011;12423;48.768;8.850;2023-12-20T08:30:19;0.10;;;0.10;;
24305;SDS011;12423;48.768;8.850;2023-12-20T08:32:48;0.20;;;0.20;;
24305;SDS011;12423;48.768;8.850;2023-12-20T08:35:15;0.10;;;0.10;;
24305;SDS011;12423;48.768;8.850;2023-12-20T08:37:45;0.10;;;0.10;;
24305;SDS011;12423;48.768;8.850;2023-12-20T08:40:13;0.10;;;0.10;;
24305;SDS011;12423;48.768;8.850;2023-12-20T08:42:42;0.20;;;0.20;;
24305;SDS011;12423;48.768;8.850;2023-12-20T08:47:37;0.00;;;0.00;;
24305;SDS011;12423;48.768;8.850;2023-12-20T08:50:07;0.10;;;0.10;;
24305;SDS011;12423;48.768;8.850;2023-12-20T08:52:35;0.00;;;0.00;;
24305;SDS011;12423;48.768;8.850;2023-12-20T08:55:03;0.10;;;0.10;;
24305;SDS011;12423;48.768;8.850;2023-12-20T08:57:32;0.00;;;0.00;;
24305;SDS011;12423;48.768;8.850;2023-12-20T09:00:01;1.55;;;1.45;;
24305;SDS011;12423;48.768;8.850;2023-12-20T09:02:31;0.10;;;0.10;;
24305;SDS011;12423;48.768;8.850;2023-12-20T09:04:58;1.92;;;1.30;;
24305;SDS011;12423;48.768;8.850;2023-12-20T09:07:26;0.10;;;0.10;;
24305;SDS011;12423;48.768;8.850;2023-12-20T09:09:56;0.10;;;0.10;;
24305;SDS011;12423;48.768;8.850;2023-12-20T09:12:25;0.10;;;0.10;;
24305;SDS011;12423;48.768;8.850;2023-12-20T09:14:52;0.10;;;0.10;;
24305;SDS011;12423;48.768;8.850;2023-12-20T09:17:21;0.10;;;0.10;;
24305;SDS011;12423;48.768;8.850;2023-12-20T09:19:50;0.10;;;0.10;;
24305;SDS011;12423;48.768;8.850;2023-12-20T09:22:20;0.10;;;0.10;;
24305;SDS011;12423;48.768;8.850;2023-12-20T09:24:48;0.10;;;0.10;;
24305;SDS011;12423;48.768;8.850;2023-12-20T09:27:16;0.10;;;0.10;;
24305;SDS011;12423;48.768;8.850;2023-12-20T09:29:44;0.25;;;0.25;;
24305;SDS011;12423;48.768;8.850;2023-12-20T09:32:11;0.10;;;0.10;;
24305;SDS011;12423;48.768;8.850;2023-12-20T09:34:40;0.10;;;0.10;;
24305;SDS011;12423;48.768;8.850;2023-12-20T09:37:08;0.10;;;0.10;;
24305;SDS011;12423;48.768;8.850;2023-12-20T09:39:36;0.55;;;0.55;;
24305;SDS011;12423;48.768;8.850;2023-12-20T09:42:05;0.00;;;0.00;;
24305;SDS011;12423;48.768;8.850;2023-12-20T09:44:33;0.00;;;0.00;;
24305;SDS011;12423;48.768;8.850;2023-12-20T09:47:02;2.70;;;0.80;;
24305;SDS011;12423;48.768;8.850;2023-12-20T09:49:30;0.10;;;0.10;;
24305;SDS011;12423;48.768;8.850;2023-12-20T09:52:02;0.00;;;0.00;;
24305;SDS011;12423;48.768;8.850;2023-12-20T09:54:32;1.38;;;0.52;;
24305;SDS011;12423;48.768;8.850;2023-12-20T09:57:00;0.10;;;0.10;;
24305;SDS011;12423;48.768;8.850;2023-12-20T09:59:27;0.10;;;0.10;;
24305;SDS011;12423;48.768;8.850;2023-12-20T10:01:55;0.10;;;0.10;;
24305;SDS011;12423;48.768;8.850;2023-12-20T10:06:56;0.30;;;0.30;;
24305;SDS011;12423;48.768;8.850;2023-12-20T10:09:25;0.20;;;0.20;;
24305;SDS011;12423;48.768;8.850;2023-12-20T10:11:55;0.10;;;0.10;;
24305;SDS011;12423;48.768;8.850;2023-12-20T10:14:23;0.10;;;0.10;;
24305;SDS011;12423;48.768;8.850;2023-12-20T10:16:51;0.00;;;0.00;;
24305;SDS011;12423;48.768;8.850;2023-12-20T10:19:20;0.00;;;0.00;;
24305;SDS011;12423;48.768;8.850;2023-12-20T10:21:48;0.20;;;0.20;;
24305;SDS011;12423;48.768;8.850;2023-12-20T10:24:16;0.00;;;0.00;;
24305;SDS011;12423;48.768;8.850;2023-12-20T10:26:46;0.10;;;0.10;;
24305;SDS011;12423;48.768;8.850;2023-12-20T10:29:13;0.10;;;0.10;;
24305;SDS011;12423;48.768;8.850;2023-12-20T10:31:41;0.73;;;0.73;;
24305;SDS011;12423;48.768;8.850;2023-12-20T10:34:11;0.10;;;0.10;;
24305;SDS011;12423;48.768;8.850;2023-12-20T10:36:39;0.08;;;0.08;;
24305;SDS011;12423;48.768;8.850;2023-12-20T10:39:07;0.20;;;0.20;;
24305;SDS011;12423;48.768;8.850;2023-12-20T10:41:38;0.10;;;0.10;;
24305;SDS011;12423;48.768;8.850;2023-12-20T10:44:09;0.08;;;0.08;;
24305;SDS011;12423;48.768;8.850;2023-12-20T10:46:38;0.10;;;0.10;;
24305;SDS011;12423;48.768;8.850;2023-12-20T10:49:07;0.55;;;0.55;;
24305;SDS011;12423;48.768;8.850;2023-12-20T10:51:35;0.03;;;0.03;;
24305;SDS011;12423;48.768;8.850;2023-12-20T10:56:33;3.03;;;1.73;;
24305;SDS011;12423;48.768;8.850;2023-12-20T10:59:02;0.10;;;0.10;;
24305;SDS011;12423;48.768;8.850;2023-12-20T11:01:33;0.00;;;0.00;;
24305;SDS011;12423;48.768;8.850;2023-12-20T11:04:02;0.10;;;0.10;;
24305;SDS011;12423;48.768;8.850;2023-12-20T11:06:36;0.10;;;0.10;;
24305;SDS011;12423;48.768;8.850;2023-12-20T11:09:16;0.10;;;0.10;;
24305;SDS011;12423;48.768;8.850;2023-12-20T11:11:53;0.10;;;0.10;;
24305;SDS011;12423;48.768;8.850;2023-12-20T11:14:27;0.00;;;0.00;;
24305;SDS011;12423;48.768;8.850;2023-12-20T11:17:08;0.10;;;0.10;;
24305;SDS011;12423;48.768;8.850;2023-12-20T11:19:38;0.10;;;0.10;;
24305;SDS011;12423;48.768;8.850;2023-12-20T11:22:31;0.10;;;0.10;;
24305;SDS011;12423;48.768;8.850;2023-12-20T11:25:07;0.82;;;0.70;;
24305;SDS011;12423;48.768;8.850;2023-12-20T11:27:36;0.10;;;0.10;;
24305;SDS011;12423;48.768;8.850;2023-12-20T11:30:07;0.10;;;0.10;;
24305;SDS011;12423;48.768;8.850;2023-12-20T11:32:37;0.10;;;0.10;;
24305;SDS011;12423;48.768;8.850;2023-12-20T11:35:17;0.10;;;0.10;;
24305;SDS011;12423;48.768;8.850;2023-12-20T11:37:46;0.00;;;0.00;;
24305;SDS011;12423;48.768;8.850;2023-12-20T11:40:15;0.00;;;0.00;;
24305;SDS011;12423;48.768;8.850;2023-12-20T11:45:13;0.20;;;0.20;;
24305;SDS011;12423;48.768;8.850;2023-12-20T11:47:44;0.10;;;0.10;;
24305;SDS011;12423;48.768;8.850;2023-12-20T11:50:14;0.10;;;0.10;;
24305;SDS011;12423;48.768;8.850;2023-12-20T11:52:42;0.63;;;0.63;;
24305;SDS011;12423;48.768;8.850;2023-12-20T11:55:10;0.10;;;0.10;;
24305;SDS011;12423;48.768;8.850;2023-12-20T11:57:37;0.10;;;0.10;;
24305;SDS011;12423;48.768;8.850;2023-12-20T12:00:06;0.10;;;0.10;;
24305;SDS011;12423;48.768;8.850;2023-12-20T12:02:38;0.90;;;0.90;;
24305;SDS011;12423;48.768;8.850;2023-12-20T12:05:07;0.10;;;0.10;;
24305;SDS011;12423;48.768;8.850;2023-12-20T12:07:35;0.10;;;0.10;;
24305;SDS011;12423;48.768;8.850;2023-12-20T12:10:04;1.50;;;1.40;;
24305;SDS011;12423;48.768;8.850;2023-12-20T12:12:32;0.13;;;0.13;;
24305;SDS011;12423;48.768;8.850;2023-12-20T12:15:00;0.38;;;0.38;;
24305;SDS011;12423;48.768;8.850;2023-12-20T12:17:29;0.10;;;0.10;;
24305;SDS011;12423;48.768;8.850;2023-12-20T12:20:03;0.10;;;0.10;;
24305;SDS011;12423;48.768;8.850;2023-12-20T12:22:33;0.10;;;0.10;;
24305;SDS011;12423;48.768;8.850;2023-12-20T12:25:09;0.00;;;0.00;;
24305;SDS011;12423;48.768;8.850;2023-12-20T12:27:39;0.90;;;0.90;;
24305;SDS011;12423;48.768;8.850;2023-12-20T12:30:08;0.10;;;0.10;;
24305;SDS011;12423;48.768;8.850;2023-12-20T12:32:39;0.10;;;0.10;;
24305;SDS011;12423;48.768;8.850;2023-12-20T12:35:08;0.10;;;0.10;;
24305;SDS011;12423;48.768;8.850;2023-12-20T12:37:38;0.10;;;0.10;;
24305;SDS011;12423;48.768;8.850;2023-12-20T12:40:07;0.10;;;0.10;;
24305;SDS011;12423;48.768;8.850;2023-12-20T12:42:37;0.03;;;0.03;;
24305;SDS011;12423;48.768;8.850;2023-12-20T12:45:06;0.10;;;0.10;;
24305;SDS011;12423;48.768;8.850;2023-12-20T12:47:34;0.30;;;0.30;;
24305;SDS011;12423;48.768;8.850;2023-12-20T12:50:03;0.10;;;0.10;;
24305;SDS011;12423;48.768;8.850;2023-12-20T12:52:31;0.47;;;0.47;;
24305;SDS011;12423;48.768;8.850;2023-12-20T12:55:00;0.10;;;0.10;;
24305;SDS011;12423;48.768;8.850;2023-12-20T12:57:28;0.00;;;0.00;;
24305;SDS011;12423;48.768;8.850;2023-12-20T12:59:56;0.10;;;0.10;;
24305;SDS011;12423;48.768;8.850;2023-12-20T13:02:24;0.10;;;0.10;;
24305;SDS011;12423;48.768;8.850;2023-12-20T13:04:52;0.10;;;0.10;;
24305;SDS011;12423;48.768;8.850;2023-12-20T13:07:20;0.10;;;0.10;;
24305;SDS011;12423;48.768;8.850;2023-12-20T13:09:47;0.00;;;0.00;;
24305;SDS011;12423;48.768;8.850;2023-12-20T13:12:16;0.00;;;0.00;;
24305;SDS011;12423;48.768;8.850;2023-12-20T13:14:45;1.10;;;0.95;;
24305;SDS011;12423;48.768;8.850;2023-12-20T13:17:13;0.10;;;0.10;;
24305;SDS011;12423;48.768;8.850;2023-12-20T13:19:41;0.00;;;0.00;;
24305;SDS011;12423;48.768;8.850;2023-12-20T13:22:09;0.00;;;0.00;;
24305;SDS011;12423;48.768;8.850;2023-12-20T13:24:37;0.00;;;0.00;;
24305;SDS011;12423;48.768;8.850;2023-12-20T13:27:05;0.63;;;0.63;;
24305;SDS011;12423;48.768;8.850;2023-12-20T13:29:34;0.08;;;0.08;;
24305;SDS011;12423;48.768;8.850;2023-12-20T13:32:05;0.75;;;0.75;;
24305;SDS011;12423;48.768;8.850;2023-12-20T13:34:34;0.03;;;0.03;;
24305;SDS011;12423;48.768;8.850;2023-12-20T13:37:02;0.00;;;0.00;;
24305;SDS011;12423;48.768;8.850;2023-12-20T13:39:31;0.00;;;0.00;;
24305;SDS011;12423;48.768;8.850;2023-12-20T13:41:59;0.10;;;0.10;;
24305;SDS011;12423;48.768;8.850;2023-12-20T13:44:27;0.10;;;0.10;;
24305;SDS011;12423;48.768;8.850;2023-12-20T13:46:56;0.10;;;0.10;;
24305;SDS011;12423;48.768;8.850;2023-12-20T13:49:24;0.47;;;0.47;;
24305;SDS011;12423;48.768;8.850;2023-12-20T13:51:52;0.10;;;0.10;;
24305;SDS011;12423;48.768;8.850;2023-12-20T13:54:21;0.10;;;0.10;;
24305;SDS011;12423;48.768;8.850;2023-12-20T13:56:49;0.10;;;0.10;;
24305;SDS011;12423;48.768;8.850;2023-12-20T13:59:34;0.10;;;0.10;;
24305;SDS011;12423;48.768;8.850;2023-12-20T14:02:03;0.10;;;0.10;;
24305;SDS011;12423;48.768;8.850;2023-12-20T14:04:31;0.00;;;0.00;;
24305;SDS011;12423;48.768;8.850;2023-12-20T14:07:08;2.53;;;0.45;;
24305;SDS011;12423;48.768;8.850;2023-12-20T14:09:38;0.13;;;0.13;;
24305;SDS011;12423;48.768;8.850;2023-12-20T14:12:11;0.08;;;0.08;;
24305;SDS011;12423;48.768;8.850;2023-12-20T14:14:39;0.10;;;0.10;;
24305;SDS011;12423;48.768;8.850;2023-12-20T14:17:08;1.30;;;1.30;;
24305;SDS011;12423;48.768;8.850;2023-12-20T14:19:36;0.03;;;0.03;;
24305;SDS011;12423;48.768;8.850;2023-12-20T14:22:04;0.00;;;0.00;;
24305;SDS011;12423;48.768;8.850;2023-12-20T14:24:32;0.10;;;0.10;;
24305;SDS011;12423;48.768;8.850;2023-12-20T14:27:01;0.08;;;0.08;;
24305;SDS011;12423;48.768;8.850;2023-12-20T14:29:28;0.10;;;0.10;;
24305;SDS011;12423;48.768;8.850;2023-12-20T14:31:56;0.25;;;0.25;;
24305;SDS011;12423;48.768;8.850;2023-12-20T14:34:25;0.10;;;0.10;;
24305;SDS011;12423;48.768;8.850;2023-12-20T14:36:52;0.10;;;0.10;;
24305;SDS011;12423;48.768;8.850;2023-12-20T14:39:20;0.20;;;0.20;;
24305;SDS011;12423;48.768;8.850;2023-12-20T14:41:49;0.10;;;0.10;;
24305;SDS011;12423;48.768;8.850;2023-12-20T14:44:16;0.38;;;0.38;;
24305;SDS011;12423;48.768;8.850;2023-12-20T14:46:44;0.40;;;0.40;;
24305;SDS011;12423;48.768;8.850;2023-12-20T14:49:12;0.10;;;0.10;;
24305;SDS011;12423;48.768;8.850;2023-12-20T14:51:44;0.00;;;0.00;;
24305;SDS011;12423;48.768;8.850;2023-12-20T14:54:14;0.28;;;0.28;;
24305;SDS011;12423;48.768;8.850;2023-12-20T14:56:41;0.10;;;0.10;;
24305;SDS011;12423;48.768;8.850;2023-12-20T14:59:09;0.10;;;0.10;;
24305;SDS011;12423;48.768;8.850;2023-12-20T15:01:37;0.10;;;0.10;;
24305;SDS011;12423;48.768;8.850;2023-12-20T15:04:07;0.10;;;0.10;;
24305;SDS011;12423;48.768;8.850;2023-12-20T15:06:35;0.05;;;0.05;;